ADDS TAF Board (Experimental) INFO

IDs: Format: Expanded Condensed

Updated at: 1019 UTC 21 Oct 2014

KMCO - Orlando Intl, FL, US

Issued at 0900 UTC 21 Oct 2014
Time0953Z21/11Z21/12Z21/13Z21/14Z21/15Z21/16Z21/17Z21/18Z21/19Z21/20Z21/21Z21/22Z21/23Z
TypeOBSPRVLPRVLPRVLPRVLPRVLPRVLPRVLPRVLPRVLPRVLPRVLPRVLPRVL
VIS10>6>6>6>6>6>6>6>6>6>6>6>6>6
CIG250250250250250120120120120120120120120250
CoverOVCOVCOVCOVCOVCOVCOVCOVCOVCOVCOVCOVCOVCBKN
FltCat--VFRVFRVFRVFRVFRVFRVFRVFRVFRVFRVFRVFRVFR
WX----------------------------
WDirVRBVRBVRBVRBVRB280280280280280280280280300
WSpd03333444444443
WGst----------------------------
R17/35
XWndVRBVRBVRBVRBVRB-4-4-4-4-4-4-4-4-3
HWndVRBVRBVRBVRBVRB-1-1-1-1-1-1-1-1-2
R18/36
XWndVRBVRBVRBVRBVRB-4-4-4-4-4-4-4-4-3
HWndVRBVRBVRBVRBVRB-1-1-1-1-1-1-1-1-2
Raw TAF
KMCO 210900Z 2109/2206 VRB03KT P6SM FEW060 SCT150 OVC250
  FM211500 28004KT P6SM SCT050 BKN120 OVC250
  FM212300 30003KT P6SM SCT090 BKN250


Raw METAR
KMCO 210953Z 00000KT 10SM FEW060 FEW140 OVC250 22/20 A2994 RMK AO2 SLP136 T02170200

TAF Board Legend

Hazard VFR MVFR IFR LIFR
Visibility (sm) >5 3≤X≤5 1≤X<3 <1
Ceiling (100 ft) >30 10≤X≤30 5≤X<10 <5
Wind Speed (kt) <10 10≤X<20 20≤X<30 ≥30
Wind Gust (kt) <15 15≤X<25 25≤X<35 ≥35
Weather No Wx Reported VCTS,-TS,-FZRA TS,FZRA +TS,+FZRA


Page loaded:  10:19 UTC  |   03:19 AM Pacific  |   04:19 AM Mountain  |   05:19 AM Central  |   06:19 AM Eastern

 

ADVISORIES

FORECASTS

FORECASTS

OBSERVATIONS

USER TOOLS

ABOUT US